Time;durP1;ratioP1;P1;durP2;ratioP2;P2;SDS_P1;SDS_P2;PMS_P1;PMS_P2;Temp;Humidity;BMP_temperature;BMP_pressure;BME280_temperature;BME280_humidity;BME280_pressure;Samples;Min_cycle;Max_cycle;Signal;HPM_P1;HPM_P2
2023/04/16 00:00:03;;;;;;;3.47;2.00;;;;;;;18.19;57.54;100393.91;5030255;28;20168;-61
2023/04/16 00:02:31;;;;;;;3.77;1.67;;;;;;;18.17;57.69;100402.03;4997022;28;20188;-61
2023/04/16 00:04:57;;;;;;;5.50;1.70;;;;;;;18.16;57.48;100403.25;5025680;28;20457;-61
2023/04/16 00:07:22;;;;;;;3.97;1.83;;;;;;;18.14;57.63;100400.75;5032516;28;20483;-61
2023/04/16 00:09:48;;;;;;;3.90;1.83;;;;;;;18.14;57.59;100399.91;5034223;28;20655;-61
2023/04/16 00:12:13;;;;;;;4.40;1.60;;;;;;;18.13;57.52;100399.09;5030785;28;20172;-61
2023/04/16 00:14:39;;;;;;;3.63;1.40;;;;;;;18.13;57.69;100404.81;5030881;28;20169;-61
2023/04/16 00:17:04;;;;;;;4.77;2.03;;;;;;;18.13;57.83;100398.28;5043330;28;20179;-61
2023/04/16 00:19:30;;;;;;;3.53;1.50;;;;;;;18.15;57.96;100398.72;5051544;28;20182;-61
2023/04/16 00:21:55;;;;;;;3.70;1.80;;;;;;;18.14;58.08;100406.47;5016004;28;20199;-61
2023/04/16 00:24:20;;;;;;;4.17;1.90;;;;;;;18.12;57.69;100402.34;5031260;28;20248;-62
2023/04/16 00:26:46;;;;;;;6.10;2.53;;;;;;;18.14;57.70;100405.63;5030671;28;20224;-61
2023/04/16 00:29:11;;;;;;;7.47;2.50;;;;;;;18.14;57.64;100400.75;5031413;28;20210;-61
2023/04/16 00:31:37;;;;;;;3.27;1.70;;;;;;;18.12;58.06;100408.84;5032990;28;20196;-61
2023/04/16 00:34:02;;;;;;;5.93;1.70;;;;;;;18.11;57.94;100412.94;5035297;28;20185;-61
2023/04/16 00:36:28;;;;;;;3.70;1.70;;;;;;;18.14;57.62;100403.63;5034110;28;20164;-61
2023/04/16 00:38:54;;;;;;;3.27;1.53;;;;;;;18.13;58.08;100406.84;5037011;28;20196;-61
2023/04/16 00:41:20;;;;;;;3.23;1.70;;;;;;;18.10;57.74;100408.41;5034005;28;20651;-61
2023/04/16 00:43:45;;;;;;;3.80;1.87;;;;;;;18.11;57.92;100401.50;5034286;28;20482;-61
2023/04/16 00:46:11;;;;;;;2.50;1.37;;;;;;;18.10;57.96;100405.56;5033153;28;20745;-61
2023/04/16 00:48:37;;;;;;;3.40;1.90;;;;;;;18.13;57.88;100410.53;5018726;28;20208;-61
2023/04/16 00:51:06;;;;;;;2.87;1.63;;;;;;;18.16;57.51;100414.69;5031447;28;20703;-61
2023/04/16 00:53:31;;;;;;;3.40;1.63;;;;;;;18.18;57.29;100412.25;5015089;28;20169;-62
2023/04/16 00:55:57;;;;;;;5.73;2.10;;;;;;;18.22;57.57;100411.13;5016976;28;20506;-61
2023/04/16 00:58:23;;;;;;;6.97;2.00;;;;;;;18.26;57.39;100403.44;5033735;28;20192;-62
2023/04/16 01:00:49;;;;;;;2.43;1.40;;;;;;;18.28;56.99;100406.78;5014736;28;20199;-61
2023/04/16 01:03:15;;;;;;;4.33;2.00;;;;;;;18.33;57.09;100417.09;5045539;28;20187;-61
2023/04/16 01:05:41;;;;;;;2.83;1.53;;;;;;;18.35;57.07;100411.81;5054082;28;20769;-61
2023/04/16 01:08:06;;;;;;;4.43;2.33;;;;;;;18.36;56.95;100417.16;5047825;28;20235;-61
2023/04/16 01:10:31;;;;;;;2.97;1.97;;;;;;;18.36;56.95;100419.22;5035865;28;20536;-61
2023/04/16 01:13:00;;;;;;;3.77;2.00;;;;;;;18.36;57.20;100417.16;5035293;28;20188;-61
2023/04/16 01:15:26;;;;;;;7.03;1.90;;;;;;;18.36;56.86;100422.06;5031315;28;20198;-61
2023/04/16 01:17:51;;;;;;;4.33;1.80;;;;;;;18.33;57.09;100417.94;5033523;28;20420;-61
2023/04/16 01:20:17;;;;;;;2.57;1.50;;;;;;;18.32;57.00;100424.84;5019560;28;20249;-61
2023/04/16 01:22:42;;;;;;;2.77;1.50;;;;;;;18.30;56.94;100421.50;5033807;28;20299;-61
2023/04/16 01:25:08;;;;;;;3.23;1.77;;;;;;;18.27;57.23;100422.25;5033875;28;20926;-61
2023/04/16 01:27:33;;;;;;;3.00;1.50;;;;;;;18.27;57.15;100415.72;5037327;28;20712;-61
2023/04/16 01:29:59;;;;;;;4.87;1.70;;;;;;;18.23;57.36;100418.50;5014232;28;20161;-61
2023/04/16 01:32:24;;;;;;;4.30;2.40;;;;;;;18.23;57.19;100414.81;5013023;28;20808;-61
2023/04/16 01:34:49;;;;;;;4.10;1.60;;;;;;;18.21;57.40;100415.19;5014286;28;20563;-61
2023/04/16 01:37:16;;;;;;;4.00;1.90;;;;;;;18.20;57.62;100422.09;5030746;28;20189;-61
2023/04/16 01:39:41;;;;;;;3.80;2.07;;;;;;;18.19;57.67;100425.34;5031511;28;20184;-61
2023/04/16 01:42:07;;;;;;;3.30;1.53;;;;;;;18.16;57.76;100435.47;5034364;28;20450;-61
2023/04/16 01:44:32;;;;;;;2.97;1.43;;;;;;;18.16;57.68;100423.25;5032729;28;20157;-61
2023/04/16 01:46:57;;;;;;;2.53;1.50;;;;;;;18.16;57.80;100426.09;5032148;28;20200;-61
2023/04/16 01:49:23;;;;;;;4.23;2.00;;;;;;;18.16;57.68;100424.06;5032489;28;20180;-61
2023/04/16 01:51:48;;;;;;;2.50;1.57;;;;;;;18.14;57.70;100423.63;5040337;28;20614;-61
2023/04/16 01:54:14;;;;;;;3.77;1.70;;;;;;;18.15;57.79;100428.13;5053242;28;20168;-61
2023/04/16 01:56:39;;;;;;;5.97;1.70;;;;;;;18.14;57.55;100428.50;5048649;28;20552;-61
2023/04/16 01:59:05;;;;;;;3.33;1.57;;;;;;;18.13;57.84;100424.81;5022819;28;20208;-61
2023/04/16 02:01:30;;;;;;;3.30;1.70;;;;;;;18.13;57.81;100429.69;5015523;28;20785;-61
2023/04/16 02:03:56;;;;;;;3.97;2.20;;;;;;;18.14;57.74;100428.50;5030199;28;20192;-61
2023/04/16 02:06:21;;;;;;;3.40;1.57;;;;;;;18.17;57.47;100427.75;5044078;28;20208;-62
2023/04/16 02:08:47;;;;;;;2.90;1.47;;;;;;;18.20;57.58;100432.69;5033046;28;20204;-61
2023/04/16 02:11:12;;;;;;;2.90;1.70;;;;;;;18.22;57.53;100428.25;5052039;28;20168;-61
2023/04/16 02:13:38;;;;;;;3.47;1.70;;;;;;;18.21;57.51;100425.81;5037899;28;20188;-61
2023/04/16 02:16:03;;;;;;;3.20;1.83;;;;;;;18.21;57.40;100423.75;5032128;28;20652;-61
2023/04/16 02:18:29;;;;;;;2.30;1.60;;;;;;;18.22;57.25;100430.31;5032466;28;20648;-61
2023/04/16 02:20:56;;;;;;;3.27;1.80;;;;;;;18.23;57.47;100427.09;5030052;28;20176;-61
2023/04/16 02:23:22;;;;;;;4.47;1.60;;;;;;;18.25;57.28;100432.41;5017777;28;20190;-61
2023/04/16 02:25:47;;;;;;;2.07;1.47;;;;;;;18.26;57.35;100440.59;5042608;28;20770;-61
2023/04/16 02:28:14;;;;;;;2.50;1.77;;;;;;;18.28;57.35;100437.38;5032637;28;20911;-61
2023/04/16 02:30:40;;;;;;;3.60;1.77;;;;;;;18.30;57.04;100440.66;5033092;28;20173;-61
2023/04/16 02:33:06;;;;;;;2.67;1.47;;;;;;;18.30;57.31;100441.50;5032370;28;20472;-61
2023/04/16 02:35:32;;;;;;;2.90;1.60;;;;;;;18.31;57.07;100443.16;5040936;28;20192;-62
2023/04/16 02:37:58;;;;;;;2.90;1.73;;;;;;;18.32;57.09;100441.13;5035083;28;20454;-61
2023/04/16 02:40:24;;;;;;;2.80;1.60;;;;;;;18.33;57.12;100448.53;5032750;28;20419;-61
2023/04/16 02:42:52;;;;;;;4.37;2.13;;;;;;;18.32;57.07;100452.56;5034682;28;20203;-61
2023/04/16 02:45:18;;;;;;;2.50;1.70;;;;;;;18.31;57.36;100446.00;5033305;28;20184;-61
2023/04/16 02:47:44;;;;;;;3.20;1.53;;;;;;;18.31;57.07;100448.88;5033344;28;20965;-61
2023/04/16 02:50:10;;;;;;;3.13;1.90;;;;;;;18.30;57.19;100444.38;5051913;28;20422;-61
2023/04/16 02:52:35;;;;;;;3.00;1.67;;;;;;;18.28;57.36;100446.78;5030653;28;20249;-61
2023/04/16 02:55:01;;;;;;;2.83;1.57;;;;;;;18.28;57.15;100446.78;5039886;28;20565;-61
2023/04/16 02:57:26;;;;;;;2.87;1.80;;;;;;;18.26;57.30;100436.94;5044592;28;20203;-61
2023/04/16 02:59:52;;;;;;;2.40;1.80;;;;;;;18.26;57.26;100436.94;5012170;28;20189;-61
2023/04/16 03:02:17;;;;;;;4.67;1.50;;;;;;;18.24;57.50;100439.31;5027543;28;20184;-61
2023/04/16 03:04:43;;;;;;;2.53;1.80;;;;;;;18.22;57.41;100448.25;5051790;28;20176;-61
2023/04/16 03:07:08;;;;;;;3.13;1.57;;;;;;;18.21;57.68;100440.91;5051538;28;20223;-61
2023/04/16 03:09:34;;;;;;;3.50;1.57;;;;;;;18.21;57.49;100437.22;5052119;28;20175;-61
2023/04/16 03:12:03;;;;;;;3.70;2.07;;;;;;;18.19;57.62;100440.47;5040430;28;20198;-61
2023/04/16 03:14:28;;;;;;;5.70;1.67;;;;;;;18.19;57.43;100437.59;5032214;28;20243;-61
2023/04/16 03:16:54;;;;;;;3.57;1.73;;;;;;;18.18;57.78;100443.69;5034108;28;20556;-61
2023/04/16 03:19:19;;;;;;;3.60;1.60;;;;;;;18.22;57.36;100441.75;5033507;28;20188;-61
2023/04/16 03:21:45;;;;;;;3.20;1.77;;;;;;;18.21;57.67;100434.38;5031285;28;20165;-61
2023/04/16 03:24:10;;;;;;;3.47;1.57;;;;;;;18.21;57.51;100440.91;5032120;28;20197;-61
2023/04/16 03:26:36;;;;;;;4.50;1.40;;;;;;;18.22;57.68;100436.84;5022638;28;20188;-61
2023/04/16 03:29:01;;;;;;;3.03;1.70;;;;;;;18.21;57.65;100448.66;5020538;28;20189;-61
2023/04/16 03:31:27;;;;;;;2.77;1.43;;;;;;;18.21;57.59;100448.66;5013015;28;20162;-61
2023/04/16 03:33:52;;;;;;;2.73;1.50;;;;;;;18.21;57.46;100443.75;5028245;28;20532;-61
2023/04/16 03:36:18;;;;;;;4.50;1.77;;;;;;;18.20;57.44;100444.13;5044551;28;20748;-61
2023/04/16 03:38:43;;;;;;;3.60;1.80;;;;;;;18.22;57.43;100448.25;5053488;28;20164;-61
2023/04/16 03:41:09;;;;;;;2.53;1.53;;;;;;;18.23;57.58;100449.94;5048457;28;20201;-62
2023/04/16 03:43:34;;;;;;;3.20;1.53;;;;;;;18.23;57.49;100454.81;5051643;28;20207;-61
2023/04/16 03:46:00;;;;;;;3.70;1.70;;;;;;;18.24;57.42;100445.88;5043665;28;20183;-61
2023/04/16 03:48:25;;;;;;;3.20;1.53;;;;;;;18.24;57.56;100445.88;5030678;28;20239;-61
2023/04/16 03:50:51;;;;;;;2.17;1.40;;;;;;;18.24;57.42;100445.88;5030608;28;20176;-61
2023/04/16 03:53:16;;;;;;;2.60;1.60;;;;;;;18.24;57.35;100448.72;5034086;28;20196;-61
2023/04/16 03:55:42;;;;;;;2.43;1.60;;;;;;;18.25;57.38;100453.25;5050968;28;20168;-61
2023/04/16 03:58:07;;;;;;;2.63;1.57;;;;;;;18.24;57.47;100451.59;5037144;28;20240;-61
2023/04/16 04:00:33;;;;;;;3.73;1.70;;;;;;;18.24;57.60;100451.59;5013018;28;20503;-61
2023/04/16 04:02:58;;;;;;;5.70;1.37;;;;;;;18.24;57.65;100457.31;5033207;28;20187;-61
2023/04/16 04:05:23;;;;;;;2.97;1.70;;;;;;;18.25;57.51;100458.13;5042564;28;20906;-61
2023/04/16 04:07:49;;;;;;;2.80;1.73;;;;;;;18.25;57.12;100455.25;5031295;28;20232;-61
2023/04/16 04:10:15;;;;;;;4.10;1.67;;;;;;;18.25;57.29;100456.09;5030020;28;20192;-61
2023/04/16 04:12:40;;;;;;;3.47;1.93;;;;;;;18.25;57.56;100458.13;5032791;28;20609;-61
2023/04/16 04:15:06;;;;;;;4.03;1.40;;;;;;;18.24;57.68;100457.31;5050842;28;20180;-61
2023/04/16 04:17:32;;;;;;;2.30;1.40;;;;;;;18.27;57.53;100459.41;5033747;28;20180;-61
2023/04/16 04:19:57;;;;;;;2.53;1.47;;;;;;;18.26;57.44;100463.47;5041855;28;20711;-61
2023/04/16 04:22:23;;;;;;;3.67;2.10;;;;;;;18.26;57.35;100466.31;5031850;28;20927;-61
2023/04/16 04:24:48;;;;;;;2.83;1.47;;;;;;;18.26;57.37;100466.31;5034753;28;20199;-61
2023/04/16 04:27:13;;;;;;;2.77;1.60;;;;;;;18.26;57.54;100469.19;5030982;28;20656;-61
2023/04/16 04:29:39;;;;;;;2.87;1.93;;;;;;;18.24;57.60;100463.03;5032534;28;20849;-61
2023/04/16 04:32:05;;;;;;;2.20;1.30;;;;;;;18.26;57.78;100474.09;5051277;28;20163;-61
2023/04/16 04:34:30;;;;;;;2.30;1.50;;;;;;;18.26;57.57;100477.75;5045869;28;20188;-61
2023/04/16 04:36:56;;;;;;;2.50;1.60;;;;;;;18.25;57.74;100476.09;5031512;28;20165;-62
2023/04/16 04:39:21;;;;;;;2.10;1.50;;;;;;;18.24;57.41;100480.16;5032016;28;20271;-61
2023/04/16 04:41:47;;;;;;;3.10;1.60;;;;;;;18.23;57.72;100477.69;5028467;28;20176;-61
2023/04/16 04:44:12;;;;;;;4.00;1.70;;;;;;;18.22;57.59;100476.84;5029833;28;20743;-61
2023/04/16 04:46:39;;;;;;;4.37;1.40;;;;;;;18.23;57.43;100474.81;5028909;28;20209;-61
2023/04/16 04:49:04;;;;;;;4.30;2.30;;;;;;;18.22;57.38;100487.47;5031885;28;20660;-61
2023/04/16 04:51:30;;;;;;;5.60;1.90;;;;;;;18.22;57.71;100482.56;5029664;28;20426;-61
2023/04/16 04:53:56;;;;;;;2.97;1.60;;;;;;;18.22;57.83;100485.41;5028121;28;20341;-61
2023/04/16 04:56:21;;;;;;;2.90;1.77;;;;;;;18.23;57.49;100491.97;5030115;28;20226;-61
2023/04/16 04:58:48;;;;;;;3.10;1.53;;;;;;;18.24;57.71;100493.63;5031502;28;20189;-61
2023/04/16 05:01:14;;;;;;;3.60;2.03;;;;;;;18.22;57.43;100499.69;5045301;28;20184;-61
2023/04/16 05:03:40;;;;;;;2.50;1.77;;;;;;;18.25;57.40;100492.41;5049201;28;20414;-61
2023/04/16 05:06:05;;;;;;;2.80;1.67;;;;;;;18.26;57.49;100499.81;5049099;28;20222;-61
2023/04/16 05:08:31;;;;;;;2.30;1.27;;;;;;;18.27;57.67;100510.03;5045634;28;20729;-61
2023/04/16 05:10:56;;;;;;;2.70;1.60;;;;;;;18.27;57.64;100512.88;5049766;28;20584;-61
2023/04/16 05:13:22;;;;;;;3.50;2.40;;;;;;;18.26;57.32;100509.19;5049760;28;20164;-61
2023/04/16 05:15:47;;;;;;;2.67;1.53;;;;;;;18.25;57.49;100510.41;5048444;28;20177;-61
2023/04/16 05:18:13;;;;;;;2.47;1.50;;;;;;;18.25;57.63;100510.41;5051315;28;20183;-61
2023/04/16 05:20:38;;;;;;;2.73;1.43;;;;;;;18.24;57.69;100514.47;5052145;28;20164;-61
2023/04/16 05:23:04;;;;;;;2.90;1.30;;;;;;;18.26;57.41;100520.63;5052551;28;20176;-61
2023/04/16 05:25:29;;;;;;;2.27;1.47;;;;;;;18.25;57.38;100518.13;5047660;28;20183;-61
2023/04/16 05:27:55;;;;;;;3.00;1.50;;;;;;;18.24;57.52;100525.06;5043727;28;20235;-61
2023/04/16 05:30:20;;;;;;;2.53;1.40;;;;;;;18.26;57.52;100523.47;5016157;28;20209;-61
2023/04/16 05:32:45;;;;;;;2.23;1.33;;;;;;;18.27;57.48;100530.03;5050764;28;20665;-61
2023/04/16 05:35:11;;;;;;;2.67;1.60;;;;;;;18.26;57.52;100529.19;5053250;28;20171;-61
2023/04/16 05:37:36;;;;;;;3.87;2.13;;;;;;;18.23;57.53;100529.97;5053349;28;20156;-61
2023/04/16 05:40:02;;;;;;;2.40;1.40;;;;;;;18.25;57.50;100535.28;5049333;28;20176;-61
2023/04/16 05:42:28;;;;;;;2.40;1.60;;;;;;;18.26;57.47;100540.63;5031156;28;20165;-61
2023/04/16 05:44:53;;;;;;;2.53;1.30;;;;;;;18.26;57.43;100545.53;5031875;28;20411;-61
2023/04/16 05:47:19;;;;;;;3.20;1.57;;;;;;;18.25;57.94;100550.41;5034092;28;20211;-61
2023/04/16 05:49:44;;;;;;;3.77;1.60;;;;;;;18.26;57.58;100551.25;5031393;28;20254;-61
2023/04/16 05:52:10;;;;;;;2.70;1.67;;;;;;;18.26;57.57;100557.78;5032731;28;20250;-61
2023/04/16 05:54:35;;;;;;;2.77;1.70;;;;;;;18.26;57.57;100559.81;5029990;28;20181;-61
2023/04/16 05:57:01;;;;;;;3.53;1.60;;;;;;;18.26;57.53;100551.25;5030789;28;20172;-61
2023/04/16 05:59:26;;;;;;;3.23;1.70;;;;;;;18.26;57.55;100556.97;5030428;28;20195;-61
2023/04/16 06:01:52;;;;;;;2.37;1.47;;;;;;;18.26;57.53;100563.50;5042156;28;20983;-61
2023/04/16 06:04:17;;;;;;;2.50;1.40;;;;;;;18.26;57.39;100562.69;5032144;28;20559;-61
2023/04/16 06:06:43;;;;;;;2.47;1.40;;;;;;;18.26;57.78;100566.34;5045448;28;20231;-61
2023/04/16 06:09:09;;;;;;;3.10;1.30;;;;;;;18.23;57.70;100569.97;5031808;28;20234;-61
2023/04/16 06:11:34;;;;;;;2.60;1.47;;;;;;;18.25;57.49;100566.72;5032633;28;20180;-61
2023/04/16 06:14:00;;;;;;;2.60;1.37;;;;;;;18.24;57.46;100570.78;5017212;28;20508;-61
2023/04/16 06:16:25;;;;;;;3.03;1.60;;;;;;;18.26;57.55;100569.22;5019692;28;20192;-61
2023/04/16 06:18:51;;;;;;;2.20;1.60;;;;;;;18.26;57.58;100574.91;5012674;28;20170;-61
2023/04/16 06:21:16;;;;;;;3.30;1.50;;;;;;;18.23;57.50;100572.81;5025897;28;20187;-61
2023/04/16 06:23:41;;;;;;;4.30;2.37;;;;;;;18.23;57.69;100575.69;5030286;28;20176;-61
2023/04/16 06:26:07;;;;;;;2.97;1.60;;;;;;;18.22;57.59;100574.00;5032619;28;20711;-61
2023/04/16 06:28:32;;;;;;;2.00;1.23;;;;;;;18.24;57.83;100583.06;5045230;28;20203;-61
2023/04/16 06:30:58;;;;;;;3.33;1.70;;;;;;;18.23;57.78;100581.41;5038925;28;20188;-60
2023/04/16 06:33:24;;;;;;;2.70;1.60;;;;;;;18.23;58.05;100587.13;5032551;28;20189;-61
2023/04/16 06:35:49;;;;;;;3.00;1.70;;;;;;;18.23;57.67;100584.25;5031122;28;20478;-60
2023/04/16 06:38:15;;;;;;;2.70;1.80;;;;;;;18.22;58.02;100591.16;5030706;28;20184;-61
2023/04/16 06:40:40;;;;;;;2.00;1.40;;;;;;;18.22;58.01;100590.34;5030764;28;20188;-61
2023/04/16 06:43:06;;;;;;;2.10;1.40;;;;;;;18.23;57.91;100587.13;5031766;28;20180;-61
2023/04/16 06:45:31;;;;;;;2.67;1.93;;;;;;;18.22;57.72;100588.28;5041282;28;20193;-61
2023/04/16 06:47:57;;;;;;;2.27;1.60;;;;;;;18.22;57.89;100596.88;5010732;28;20568;-60
2023/04/16 06:50:25;;;;;;;2.33;1.40;;;;;;;18.21;58.29;100603.78;5042784;28;20695;-61
2023/04/16 06:52:51;;;;;;;2.30;1.37;;;;;;;18.22;58.09;100596.06;5044627;28;20451;-60
2023/04/16 06:55:16;;;;;;;2.60;1.57;;;;;;;18.23;57.61;100600.56;5050232;28;20472;-60
2023/04/16 06:57:42;;;;;;;2.53;1.53;;;;;;;18.22;57.67;100596.88;5046207;28;20181;-61
2023/04/16 07:00:08;;;;;;;4.10;1.40;;;;;;;18.23;57.82;100606.28;5042536;28;20199;-61
2023/04/16 07:02:33;;;;;;;2.13;1.20;;;;;;;18.22;57.72;100599.72;5050521;28;20179;-60
2023/04/16 07:04:59;;;;;;;2.70;1.50;;;;;;;18.24;57.76;100603.06;5044582;28;20657;-60
2023/04/16 07:07:25;;;;;;;2.80;1.50;;;;;;;18.23;57.86;100607.13;5025663;28;20236;-61
2023/04/16 07:09:51;;;;;;;2.53;1.30;;;;;;;18.25;57.56;100610.41;5010277;28;20176;-61
2023/04/16 07:12:16;;;;;;;3.20;1.43;;;;;;;18.28;57.79;100603.13;5028897;28;20199;-60
2023/04/16 07:14:42;;;;;;;2.10;1.47;;;;;;;18.28;57.75;100606.00;5029815;28;20399;-61
2023/04/16 07:17:07;;;;;;;3.80;1.60;;;;;;;18.29;57.64;100608.47;5034781;28;20187;-60
2023/04/16 07:19:32;;;;;;;2.30;1.40;;;;;;;18.29;57.49;100605.63;5036487;28;20246;-60
2023/04/16 07:21:58;;;;;;;2.67;1.30;;;;;;;18.29;57.60;100607.63;5030282;28;20180;-60
2023/04/16 07:24:24;;;;;;;2.43;1.50;;;;;;;18.29;57.53;100611.34;5029848;28;20298;-60
2023/04/16 07:26:50;;;;;;;2.20;1.40;;;;;;;18.29;57.76;100611.34;5036154;28;20191;-60
2023/04/16 07:29:15;;;;;;;2.63;2.03;;;;;;;18.28;57.71;100609.69;5019236;28;20188;-61
2023/04/16 07:31:41;;;;;;;1.93;1.20;;;;;;;18.27;57.44;100612.91;5015724;28;20195;-61
2023/04/16 07:34:06;;;;;;;3.10;1.37;;;;;;;18.24;57.72;100614.50;5049716;28;20623;-60
2023/04/16 07:36:32;;;;;;;2.10;1.30;;;;;;;18.23;57.70;100612.84;5049607;28;20168;-60
2023/04/16 07:38:57;;;;;;;1.90;1.30;;;;;;;18.22;57.89;100611.16;5045120;28;20183;-60
2023/04/16 07:41:23;;;;;;;2.20;1.40;;;;;;;18.21;57.89;100618.06;5049865;28;20168;-60
2023/04/16 07:43:48;;;;;;;2.23;1.50;;;;;;;18.21;57.94;100620.94;5044133;28;20194;-60
2023/04/16 07:46:14;;;;;;;2.27;1.37;;;;;;;18.20;58.06;100630.72;5029061;28;20180;-60
2023/04/16 07:48:39;;;;;;;2.17;1.50;;;;;;;18.21;57.80;100623.78;5027817;28;20196;-60
2023/04/16 07:51:05;;;;;;;3.03;1.57;;;;;;;18.20;58.03;100621.28;5030243;28;20188;-61
2023/04/16 07:53:30;;;;;;;2.70;1.50;;;;;;;18.19;58.10;100625.34;5028359;28;20267;-60
2023/04/16 07:55:56;;;;;;;2.63;1.43;;;;;;;18.19;57.98;100628.22;5027694;28;20614;-61
2023/04/16 07:58:21;;;;;;;2.10;1.30;;;;;;;18.17;58.14;100625.72;5027862;28;20180;-60
2023/04/16 08:00:46;;;;;;;2.80;1.80;;;;;;;18.17;58.17;100634.28;5029886;28;20187;-60
2023/04/16 08:03:12;;;;;;;3.47;1.60;;;;;;;18.18;58.13;100630.25;5043396;28;20184;-60
2023/04/16 08:05:37;;;;;;;2.47;1.47;;;;;;;18.19;58.18;100629.06;5035253;28;20171;-60
2023/04/16 08:08:03;;;;;;;2.10;1.37;;;;;;;18.19;58.22;100631.91;5048672;28;20239;-60
2023/04/16 08:10:28;;;;;;;2.40;1.30;;;;;;;18.19;58.07;100637.63;5044335;28;20988;-60
2023/04/16 08:12:54;;;;;;;2.10;1.50;;;;;;;18.19;58.42;100643.34;5030065;28;20168;-61
2023/04/16 08:15:19;;;;;;;2.70;1.50;;;;;;;18.19;58.20;100651.06;5025267;28;20193;-60
2023/04/16 08:17:45;;;;;;;2.40;1.33;;;;;;;18.22;58.23;100653.22;5032157;28;20586;-60
2023/04/16 08:20:10;;;;;;;2.97;1.37;;;;;;;18.21;57.93;100658.09;5029045;28;20215;-60
2023/04/16 08:22:36;;;;;;;2.50;1.40;;;;;;;18.19;58.17;100660.50;5023147;28;20189;-61
2023/04/16 08:25:02;;;;;;;2.23;1.70;;;;;;;18.17;58.09;100662.88;5008994;28;20181;-60
2023/04/16 08:27:28;;;;;;;2.30;1.60;;;;;;;18.19;58.19;100673.94;5010924;28;20232;-60
2023/04/16 08:29:53;;;;;;;2.10;1.40;;;;;;;18.21;57.96;100669.50;5028630;28;20447;-60
2023/04/16 08:32:19;;;;;;;2.20;1.33;;;;;;;18.21;57.88;100666.66;5040626;28;20561;-60
2023/04/16 08:34:44;;;;;;;2.23;1.57;;;;;;;18.20;57.88;100678.44;5048813;28;20514;-60
2023/04/16 08:37:10;;;;;;;3.50;1.30;;;;;;;18.21;57.70;100675.22;5044662;28;20214;-60
2023/04/16 08:39:36;;;;;;;2.10;1.30;;;;;;;18.22;57.83;100679.75;5048829;28;20179;-60
2023/04/16 08:42:06;;;;;;;1.70;1.00;;;;;;;18.26;57.73;100682.72;5048755;28;20559;-60
2023/04/16 08:44:33;;;;;;;3.00;1.30;;;;;;;18.27;57.73;100682.31;4994345;28;20463;-60
2023/04/16 08:46:59;;;;;;;3.00;1.67;;;;;;;18.30;57.72;100684.44;5009063;28;20413;-60
2023/04/16 08:49:25;;;;;;;2.30;1.50;;;;;;;18.34;57.75;100684.56;5028763;28;20434;-60
2023/04/16 08:51:52;;;;;;;3.93;1.87;;;;;;;18.36;57.68;100685.03;5052865;28;20455;-60
2023/04/16 08:54:42;;;;;;;1.90;1.40;;;;;;;18.37;57.57;100684.66;5050263;28;20164;-60
2023/04/16 08:57:09;;;;;;;2.80;1.47;;;;;;;18.36;57.66;100688.72;5052691;28;21243;-61
2023/04/16 08:59:34;;;;;;;1.60;0.90;;;;;;;18.36;57.55;100697.28;5014221;28;20514;-61
2023/04/16 09:02:00;;;;;;;2.67;1.30;;;;;;;18.35;57.48;100689.91;5038300;28;20776;-61
2023/04/16 09:04:27;;;;;;;2.53;1.40;;;;;;;18.32;57.46;100687.78;5042454;28;20185;-60
2023/04/16 09:06:53;;;;;;;1.87;1.17;;;;;;;18.30;57.83;100690.16;5032266;28;20207;-60
2023/04/16 09:09:18;;;;;;;2.20;1.20;;;;;;;18.29;57.52;100691.38;5030879;28;20403;-60
2023/04/16 09:11:44;;;;;;;1.80;1.13;;;;;;;18.26;57.78;100697.81;5047291;28;20499;-60
2023/04/16 09:14:12;;;;;;;2.93;1.50;;;;;;;18.24;58.06;100696.53;5052581;28;20191;-60
2023/04/16 09:16:37;;;;;;;2.20;1.50;;;;;;;18.23;57.97;100698.56;5042736;28;20534;-60
2023/04/16 09:19:03;;;;;;;2.73;1.30;;;;;;;18.23;58.13;100694.88;5014494;28;20423;-61
2023/04/16 09:21:29;;;;;;;1.90;1.17;;;;;;;18.23;58.05;100695.72;5032691;28;20681;-60
2023/04/16 09:23:55;;;;;;;2.40;1.57;;;;;;;18.21;57.97;100700.13;5033186;28;20259;-61
2023/04/16 09:26:20;;;;;;;2.27;1.60;;;;;;;18.22;58.13;100699.75;5032369;28;20173;-61
2023/04/16 09:28:47;;;;;;;2.23;1.40;;;;;;;18.21;58.06;100703.81;5033113;28;20200;-61
2023/04/16 09:31:16;;;;;;;1.93;1.27;;;;;;;18.21;58.17;100691.56;5028915;28;21023;-61
2023/04/16 09:33:42;;;;;;;3.03;1.50;;;;;;;18.21;58.27;100703.81;5011939;28;20412;-61
2023/04/16 09:36:08;;;;;;;2.30;1.23;;;;;;;18.20;58.05;100684.16;5010870;28;21127;-61
2023/04/16 09:38:46;;;;;;;2.33;1.33;;;;;;;18.21;58.67;100706.66;5041873;28;20176;-61
2023/04/16 09:41:12;;;;;;;1.97;1.07;;;;;;;18.21;58.67;100708.72;5018744;28;20210;-61
2023/04/16 09:43:37;;;;;;;2.07;1.23;;;;;;;18.22;58.09;100711.19;5021343;28;20442;-61
2023/04/16 09:46:03;;;;;;;2.20;1.33;;;;;;;18.24;57.89;100702.25;5050697;28;20224;-61
2023/04/16 09:48:32;;;;;;;2.47;1.50;;;;;;;18.23;58.11;100707.16;5049741;28;20194;-61
2023/04/16 09:50:58;;;;;;;1.70;1.13;;;;;;;18.22;58.40;100704.66;5050157;28;20171;-61
2023/04/16 09:53:27;;;;;;;2.13;1.33;;;;;;;18.23;57.97;100707.16;5036754;28;20443;-61
2023/04/16 09:56:00;;;;;;;2.13;1.20;;;;;;;18.21;58.56;100709.53;5031011;28;20505;-61
2023/04/16 09:58:25;;;;;;;1.80;1.20;;;;;;;18.22;58.10;100710.38;5035836;28;20444;-60
2023/04/16 10:01:12;;;;;;;2.60;1.60;;;;;;;18.19;58.14;100706.22;5050363;28;20407;-61
2023/04/16 10:03:38;;;;;;;2.50;1.40;;;;;;;18.22;58.04;100702.59;5046617;28;20557;-61
2023/04/16 10:06:15;;;;;;;2.40;1.37;;;;;;;18.24;57.72;100708.78;5049254;28;20765;-61
2023/04/16 10:08:47;;;;;;;1.80;1.30;;;;;;;18.24;57.69;100705.94;5050515;28;20502;-60
2023/04/16 10:11:12;;;;;;;2.77;1.40;;;;;;;18.26;57.97;100712.09;5042283;28;20501;-61
2023/04/16 10:13:38;;;;;;;2.53;1.40;;;;;;;18.29;57.82;100719.09;5031076;28;20517;-61
2023/04/16 10:16:04;;;;;;;1.80;1.17;;;;;;;18.30;57.89;100718.75;5013742;28;20184;-61
2023/04/16 10:18:29;;;;;;;2.00;1.30;;;;;;;18.35;57.74;100720.50;5012772;28;20668;-61
2023/04/16 10:20:54;;;;;;;2.10;1.40;;;;;;;18.35;57.53;100718.50;5033051;28;20626;-61
2023/04/16 10:23:20;;;;;;;2.13;1.30;;;;;;;18.39;57.39;100727.16;5030890;28;20200;-61
2023/04/16 10:25:47;;;;;;;2.30;1.30;;;;;;;18.41;57.22;100725.59;5027109;28;20188;-61
2023/04/16 10:28:13;;;;;;;2.03;1.30;;;;;;;18.41;57.39;100730.50;5031164;28;20192;-61
2023/04/16 10:30:38;;;;;;;2.87;1.60;;;;;;;18.41;57.36;100719.88;5029000;28;20438;-61
2023/04/16 10:33:04;;;;;;;2.77;1.63;;;;;;;18.40;57.28;100726.78;5030921;28;20171;-61
2023/04/16 10:35:29;;;;;;;2.00;1.30;;;;;;;18.38;57.13;100732.06;5031373;28;20555;-61
2023/04/16 10:38:20;;;;;;;2.30;1.23;;;;;;;18.36;57.61;100731.59;5030660;28;20917;-60
2023/04/16 10:40:46;;;;;;;2.00;1.23;;;;;;;18.35;57.65;100732.78;5045721;28;20179;-60
2023/04/16 10:43:15;;;;;;;2.03;1.20;;;;;;;18.34;57.79;100734.00;5049293;28;20414;-61
2023/04/16 10:45:41;;;;;;;2.30;1.40;;;;;;;18.32;57.69;100744.94;5022279;28;20655;-61
2023/04/16 10:48:10;;;;;;;2.07;1.30;;;;;;;18.28;57.77;100738.31;5028683;28;20541;-61
2023/04/16 10:50:36;;;;;;;2.10;1.20;;;;;;;18.28;57.74;100734.59;5030364;28;20180;-61
2023/04/16 10:53:17;;;;;;;2.37;1.37;;;;;;;18.26;57.86;100728.44;5049084;28;20483;-61
2023/04/16 10:56:14;;;;;;;1.90;1.30;;;;;;;18.26;58.11;100734.16;5049174;28;20164;-61
2023/04/16 10:58:39;;;;;;;2.20;1.37;;;;;;;18.25;57.96;100721.88;5030150;28;20876;-61
2023/04/16 11:01:15;;;;;;;2.70;1.57;;;;;;;18.26;58.17;100731.28;5029918;28;20426;-61
2023/04/16 11:03:42;;;;;;;3.10;1.50;;;;;;;18.25;57.79;100732.47;5038829;28;20193;-61
2023/04/16 11:06:23;;;;;;;2.47;1.50;;;;;;;18.25;58.01;100729.63;5049785;28;20426;-60
2023/04/16 11:08:52;;;;;;;1.90;1.30;;;;;;;18.22;57.99;100721.78;5049992;28;20470;-61
2023/04/16 11:11:18;;;;;;;2.57;1.47;;;;;;;18.22;58.08;100728.31;5042193;28;20446;-61
2023/04/16 11:13:44;;;;;;;2.13;1.33;;;;;;;18.21;58.37;100732.38;5049143;28;20537;-61
2023/04/16 11:16:10;;;;;;;3.00;1.33;;;;;;;18.20;58.42;100732.75;5048522;28;20417;-61
2023/04/16 11:18:37;;;;;;;1.93;1.30;;;;;;;18.22;58.20;100728.31;5045905;28;20808;-61